sensor_id;sensor_type;location;lat;lon;timestamp;temperature;humidity
19734;DHT22;10018;51.230;7.860;2022-11-25T00:00:19;3.70;99.90
19734;DHT22;10018;51.230;7.860;2022-11-25T00:02:45;3.70;99.90
19734;DHT22;10018;51.230;7.860;2022-11-25T00:05:10;3.70;99.90
19734;DHT22;10018;51.230;7.860;2022-11-25T00:07:36;3.70;99.90
19734;DHT22;10018;51.230;7.860;2022-11-25T00:10:03;3.70;99.90
19734;DHT22;10018;51.230;7.860;2022-11-25T00:12:28;3.70;99.90
19734;DHT22;10018;51.230;7.860;2022-11-25T00:14:54;3.70;99.90
19734;DHT22;10018;51.230;7.860;2022-11-25T00:17:19;3.60;99.90
19734;DHT22;10018;51.230;7.860;2022-11-25T00:19:45;3.60;99.90
19734;DHT22;10018;51.230;7.860;2022-11-25T00:22:13;3.60;99.90
19734;DHT22;10018;51.230;7.860;2022-11-25T00:24:39;3.60;99.90
19734;DHT22;10018;51.230;7.860;2022-11-25T00:27:04;3.60;99.90
19734;DHT22;10018;51.230;7.860;2022-11-25T00:29:30;3.60;99.90
19734;DHT22;10018;51.230;7.860;2022-11-25T00:31:56;3.70;99.90
19734;DHT22;10018;51.230;7.860;2022-11-25T00:34:21;3.80;99.90
19734;DHT22;10018;51.230;7.860;2022-11-25T00:36:47;3.70;99.90
19734;DHT22;10018;51.230;7.860;2022-11-25T00:39:15;3.70;99.90
19734;DHT22;10018;51.230;7.860;2022-11-25T00:41:41;3.80;99.90
19734;DHT22;10018;51.230;7.860;2022-11-25T00:44:26;3.80;99.90
19734;DHT22;10018;51.230;7.860;2022-11-25T00:47:17;3.80;99.90
19734;DHT22;10018;51.230;7.860;2022-11-25T00:49:48;3.80;99.90
19734;DHT22;10018;51.230;7.860;2022-11-25T00:52:16;3.80;99.90
19734;DHT22;10018;51.230;7.860;2022-11-25T00:54:42;3.90;99.90
19734;DHT22;10018;51.230;7.860;2022-11-25T00:57:13;3.90;99.90
19734;DHT22;10018;51.230;7.860;2022-11-25T00:59:39;3.90;99.90
19734;DHT22;10018;51.230;7.860;2022-11-25T01:02:04;4.00;99.90
19734;DHT22;10018;51.230;7.860;2022-11-25T01:04:30;4.00;99.90
19734;DHT22;10018;51.230;7.860;2022-11-25T01:06:56;4.10;99.90
19734;DHT22;10018;51.230;7.860;2022-11-25T01:09:24;4.20;99.90
19734;DHT22;10018;51.230;7.860;2022-11-25T01:11:50;4.20;99.90
19734;DHT22;10018;51.230;7.860;2022-11-25T01:14:16;4.20;99.90
19734;DHT22;10018;51.230;7.860;2022-11-25T01:16:41;4.20;99.90
19734;DHT22;10018;51.230;7.860;2022-11-25T01:19:07;4.30;99.90
19734;DHT22;10018;51.230;7.860;2022-11-25T01:21:33;4.30;99.90
19734;DHT22;10018;51.230;7.860;2022-11-25T01:24:00;4.20;99.90
19734;DHT22;10018;51.230;7.860;2022-11-25T01:26:27;4.20;99.90
19734;DHT22;10018;51.230;7.860;2022-11-25T01:28:55;4.20;99.90
19734;DHT22;10018;51.230;7.860;2022-11-25T01:31:22;4.20;99.90
19734;DHT22;10018;51.230;7.860;2022-11-25T01:33:59;4.30;99.90
19734;DHT22;10018;51.230;7.860;2022-11-25T01:36:25;4.30;99.90
19734;DHT22;10018;51.230;7.860;2022-11-25T01:38:53;4.30;99.90
19734;DHT22;10018;51.230;7.860;2022-11-25T01:41:21;4.30;99.90
19734;DHT22;10018;51.230;7.860;2022-11-25T01:44:15;4.30;99.90
19734;DHT22;10018;51.230;7.860;2022-11-25T01:49:30;4.30;99.90
19734;DHT22;10018;51.230;7.860;2022-11-25T01:52:17;4.30;99.90
19734;DHT22;10018;51.230;7.860;2022-11-25T01:54:51;4.30;99.90
19734;DHT22;10018;51.230;7.860;2022-11-25T01:57:23;4.40;99.90
19734;DHT22;10018;51.230;7.860;2022-11-25T01:59:52;4.30;99.90
19734;DHT22;10018;51.230;7.860;2022-11-25T02:02:20;4.30;99.90
19734;DHT22;10018;51.230;7.860;2022-11-25T02:04:47;4.30;99.90
19734;DHT22;10018;51.230;7.860;2022-11-25T02:07:26;4.30;99.90
19734;DHT22;10018;51.230;7.860;2022-11-25T02:09:54;4.30;99.90
19734;DHT22;10018;51.230;7.860;2022-11-25T02:12:21;4.40;99.90
19734;DHT22;10018;51.230;7.860;2022-11-25T02:14:48;4.40;99.90
19734;DHT22;10018;51.230;7.860;2022-11-25T02:17:15;4.30;99.90
19734;DHT22;10018;51.230;7.860;2022-11-25T02:19:53;4.40;99.90
19734;DHT22;10018;51.230;7.860;2022-11-25T02:22:26;4.40;99.90
19734;DHT22;10018;51.230;7.860;2022-11-25T02:25:00;4.30;99.90
19734;DHT22;10018;51.230;7.860;2022-11-25T02:27:27;4.50;99.90
19734;DHT22;10018;51.230;7.860;2022-11-25T02:29:53;4.50;99.90
19734;DHT22;10018;51.230;7.860;2022-11-25T02:32:22;4.50;99.90
19734;DHT22;10018;51.230;7.860;2022-11-25T02:34:48;4.60;99.90
19734;DHT22;10018;51.230;7.860;2022-11-25T02:37:16;4.70;99.90
19734;DHT22;10018;51.230;7.860;2022-11-25T02:39:44;4.70;99.90
19734;DHT22;10018;51.230;7.860;2022-11-25T02:42:10;4.70;99.90
19734;DHT22;10018;51.230;7.860;2022-11-25T02:44:36;4.70;99.90
19734;DHT22;10018;51.230;7.860;2022-11-25T02:47:01;4.80;99.90
19734;DHT22;10018;51.230;7.860;2022-11-25T02:49:27;4.90;99.90
19734;DHT22;10018;51.230;7.860;2022-11-25T02:51:52;4.90;99.90
19734;DHT22;10018;51.230;7.860;2022-11-25T02:54:18;4.90;99.90
19734;DHT22;10018;51.230;7.860;2022-11-25T02:56:43;4.90;99.90
19734;DHT22;10018;51.230;7.860;2022-11-25T02:59:10;5.00;99.90
19734;DHT22;10018;51.230;7.860;2022-11-25T03:01:36;5.00;99.90
19734;DHT22;10018;51.230;7.860;2022-11-25T03:04:02;4.90;99.90
19734;DHT22;10018;51.230;7.860;2022-11-25T03:06:29;4.90;99.90
19734;DHT22;10018;51.230;7.860;2022-11-25T03:08:55;4.90;99.90
19734;DHT22;10018;51.230;7.860;2022-11-25T03:11:21;4.90;99.90
19734;DHT22;10018;51.230;7.860;2022-11-25T03:14:07;4.90;99.90
19734;DHT22;10018;51.230;7.860;2022-11-25T03:16:33;4.90;99.90
19734;DHT22;10018;51.230;7.860;2022-11-25T03:18:58;4.90;99.90
19734;DHT22;10018;51.230;7.860;2022-11-25T03:21:24;5.00;99.90
19734;DHT22;10018;51.230;7.860;2022-11-25T03:23:49;4.90;99.90
19734;DHT22;10018;51.230;7.860;2022-11-25T03:26:15;4.90;99.90
19734;DHT22;10018;51.230;7.860;2022-11-25T03:28:40;5.00;99.90
19734;DHT22;10018;51.230;7.860;2022-11-25T03:31:09;5.00;99.90
19734;DHT22;10018;51.230;7.860;2022-11-25T03:33:35;5.00;99.90
19734;DHT22;10018;51.230;7.860;2022-11-25T03:36:00;5.00;99.90
19734;DHT22;10018;51.230;7.860;2022-11-25T03:38:26;5.00;99.90
19734;DHT22;10018;51.230;7.860;2022-11-25T03:40:51;5.00;99.90
19734;DHT22;10018;51.230;7.860;2022-11-25T03:43:17;5.10;99.90
19734;DHT22;10018;51.230;7.860;2022-11-25T03:45:42;5.20;99.90
19734;DHT22;10018;51.230;7.860;2022-11-25T03:48:08;5.20;99.90
19734;DHT22;10018;51.230;7.860;2022-11-25T03:50:33;5.30;99.90
19734;DHT22;10018;51.230;7.860;2022-11-25T03:52:59;5.30;99.90
19734;DHT22;10018;51.230;7.860;2022-11-25T03:55:24;5.40;99.90
19734;DHT22;10018;51.230;7.860;2022-11-25T03:57:50;5.40;99.90
19734;DHT22;10018;51.230;7.860;2022-11-25T04:00:16;5.40;99.90
19734;DHT22;10018;51.230;7.860;2022-11-25T04:02:41;5.30;99.90
19734;DHT22;10018;51.230;7.860;2022-11-25T04:05:07;5.30;99.90
19734;DHT22;10018;51.230;7.860;2022-11-25T04:07:32;5.20;99.90
19734;DHT22;10018;51.230;7.860;2022-11-25T04:09:58;5.20;99.90
19734;DHT22;10018;51.230;7.860;2022-11-25T04:12:23;5.10;99.90
19734;DHT22;10018;51.230;7.860;2022-11-25T04:15:08;5.00;99.90
19734;DHT22;10018;51.230;7.860;2022-11-25T04:17:33;5.00;99.90
19734;DHT22;10018;51.230;7.860;2022-11-25T04:19:59;4.90;99.90
19734;DHT22;10018;51.230;7.860;2022-11-25T04:22:24;4.90;99.90
19734;DHT22;10018;51.230;7.860;2022-11-25T04:24:50;4.90;99.90
19734;DHT22;10018;51.230;7.860;2022-11-25T04:27:15;4.90;99.90
19734;DHT22;10018;51.230;7.860;2022-11-25T04:29:41;4.90;99.90
19734;DHT22;10018;51.230;7.860;2022-11-25T04:32:06;4.90;99.90
19734;DHT22;10018;51.230;7.860;2022-11-25T04:34:32;4.90;99.90
19734;DHT22;10018;51.230;7.860;2022-11-25T04:36:57;4.90;99.90
19734;DHT22;10018;51.230;7.860;2022-11-25T04:39:23;4.90;99.90
19734;DHT22;10018;51.230;7.860;2022-11-25T04:41:48;5.00;99.90
19734;DHT22;10018;51.230;7.860;2022-11-25T04:44:14;5.20;99.90
19734;DHT22;10018;51.230;7.860;2022-11-25T04:46:41;5.30;99.90
19734;DHT22;10018;51.230;7.860;2022-11-25T04:49:08;5.50;99.90
19734;DHT22;10018;51.230;7.860;2022-11-25T04:51:34;5.70;99.90
19734;DHT22;10018;51.230;7.860;2022-11-25T04:54:00;5.90;99.90
19734;DHT22;10018;51.230;7.860;2022-11-25T04:56:25;6.10;99.90
19734;DHT22;10018;51.230;7.860;2022-11-25T04:58:51;5.90;99.90
19734;DHT22;10018;51.230;7.860;2022-11-25T05:01:35;5.80;99.90
19734;DHT22;10018;51.230;7.860;2022-11-25T05:04:00;5.80;99.90
19734;DHT22;10018;51.230;7.860;2022-11-25T05:06:26;5.70;99.90
19734;DHT22;10018;51.230;7.860;2022-11-25T05:08:51;5.70;99.90
19734;DHT22;10018;51.230;7.860;2022-11-25T05:11:17;5.70;99.90
19734;DHT22;10018;51.230;7.860;2022-11-25T05:13:43;5.70;99.90
19734;DHT22;10018;51.230;7.860;2022-11-25T05:16:08;5.90;99.90
19734;DHT22;10018;51.230;7.860;2022-11-25T05:18:34;6.10;99.90
19734;DHT22;10018;51.230;7.860;2022-11-25T05:21:01;6.20;99.90
19734;DHT22;10018;51.230;7.860;2022-11-25T05:23:27;6.30;99.90
19734;DHT22;10018;51.230;7.860;2022-11-25T05:26:01;6.30;99.90
19734;DHT22;10018;51.230;7.860;2022-11-25T05:28:28;6.30;99.90
19734;DHT22;10018;51.230;7.860;2022-11-25T05:30:53;6.30;99.90
19734;DHT22;10018;51.230;7.860;2022-11-25T05:33:19;6.30;99.90
19734;DHT22;10018;51.230;7.860;2022-11-25T05:35:59;6.30;99.90
19734;DHT22;10018;51.230;7.860;2022-11-25T05:38:25;6.30;99.90
19734;DHT22;10018;51.230;7.860;2022-11-25T05:40:52;6.30;99.90
19734;DHT22;10018;51.230;7.860;2022-11-25T05:43:18;6.30;99.90
19734;DHT22;10018;51.230;7.860;2022-11-25T05:45:44;6.30;99.90
19734;DHT22;10018;51.230;7.860;2022-11-25T05:48:09;6.30;99.90
19734;DHT22;10018;51.230;7.860;2022-11-25T05:50:36;6.30;99.90
19734;DHT22;10018;51.230;7.860;2022-11-25T05:53:02;6.40;99.90
19734;DHT22;10018;51.230;7.860;2022-11-25T05:55:27;6.40;99.90
19734;DHT22;10018;51.230;7.860;2022-11-25T05:57:53;6.40;99.90
19734;DHT22;10018;51.230;7.860;2022-11-25T06:00:18;6.40;99.90
19734;DHT22;10018;51.230;7.860;2022-11-25T06:02:46;6.40;99.90
19734;DHT22;10018;51.230;7.860;2022-11-25T06:05:13;6.30;99.90
19734;DHT22;10018;51.230;7.860;2022-11-25T06:07:39;6.30;99.90
19734;DHT22;10018;51.230;7.860;2022-11-25T06:10:05;6.30;99.90
19734;DHT22;10018;51.230;7.860;2022-11-25T06:12:30;6.30;99.90
19734;DHT22;10018;51.230;7.860;2022-11-25T06:14:56;6.30;99.90
19734;DHT22;10018;51.230;7.860;2022-11-25T06:17:21;6.20;99.90
19734;DHT22;10018;51.230;7.860;2022-11-25T06:19:47;6.20;99.90
19734;DHT22;10018;51.230;7.860;2022-11-25T06:22:12;6.20;99.90
19734;DHT22;10018;51.230;7.860;2022-11-25T06:24:38;6.20;99.90
19734;DHT22;10018;51.230;7.860;2022-11-25T06:27:04;6.20;99.90
19734;DHT22;10018;51.230;7.860;2022-11-25T06:29:29;6.20;99.90
19734;DHT22;10018;51.230;7.860;2022-11-25T06:31:55;6.20;99.90
19734;DHT22;10018;51.230;7.860;2022-11-25T06:34:20;6.30;99.90
19734;DHT22;10018;51.230;7.860;2022-11-25T06:36:48;6.40;99.90
19734;DHT22;10018;51.230;7.860;2022-11-25T06:39:13;6.40;99.90
19734;DHT22;10018;51.230;7.860;2022-11-25T06:41:39;6.50;99.90
19734;DHT22;10018;51.230;7.860;2022-11-25T06:44:04;6.50;99.90
19734;DHT22;10018;51.230;7.860;2022-11-25T06:46:30;6.60;99.90
19734;DHT22;10018;51.230;7.860;2022-11-25T06:48:58;6.60;99.90
19734;DHT22;10018;51.230;7.860;2022-11-25T06:51:24;6.60;99.90
19734;DHT22;10018;51.230;7.860;2022-11-25T06:53:50;6.60;99.90
19734;DHT22;10018;51.230;7.860;2022-11-25T06:56:25;6.60;99.90
19734;DHT22;10018;51.230;7.860;2022-11-25T06:58:51;6.70;99.90
19734;DHT22;10018;51.230;7.860;2022-11-25T07:01:28;6.70;99.90
19734;DHT22;10018;51.230;7.860;2022-11-25T07:03:59;6.70;99.90
19734;DHT22;10018;51.230;7.860;2022-11-25T07:06:26;6.70;99.90
19734;DHT22;10018;51.230;7.860;2022-11-25T07:08:51;6.80;99.90
19734;DHT22;10018;51.230;7.860;2022-11-25T07:11:18;6.80;99.90
19734;DHT22;10018;51.230;7.860;2022-11-25T07:13:44;6.80;99.90
19734;DHT22;10018;51.230;7.860;2022-11-25T07:16:10;6.80;99.90
19734;DHT22;10018;51.230;7.860;2022-11-25T07:18:37;6.90;99.90
19734;DHT22;10018;51.230;7.860;2022-11-25T07:21:09;6.80;99.90
19734;DHT22;10018;51.230;7.860;2022-11-25T07:23:36;6.90;99.90
19734;DHT22;10018;51.230;7.860;2022-11-25T07:26:04;6.90;99.90
19734;DHT22;10018;51.230;7.860;2022-11-25T07:28:31;6.90;99.90
19734;DHT22;10018;51.230;7.860;2022-11-25T07:31:04;6.90;99.90
19734;DHT22;10018;51.230;7.860;2022-11-25T07:33:30;6.90;99.90
19734;DHT22;10018;51.230;7.860;2022-11-25T07:35:55;6.90;99.90
19734;DHT22;10018;51.230;7.860;2022-11-25T07:38:21;7.00;99.90
19734;DHT22;10018;51.230;7.860;2022-11-25T07:40:46;7.00;99.90
19734;DHT22;10018;51.230;7.860;2022-11-25T07:43:14;6.90;99.90
19734;DHT22;10018;51.230;7.860;2022-11-25T07:45:40;7.00;99.90
19734;DHT22;10018;51.230;7.860;2022-11-25T07:48:05;7.00;99.90
19734;DHT22;10018;51.230;7.860;2022-11-25T07:50:31;7.00;99.90
19734;DHT22;10018;51.230;7.860;2022-11-25T07:52:57;7.00;99.90
19734;DHT22;10018;51.230;7.860;2022-11-25T07:55:22;7.00;99.90
19734;DHT22;10018;51.230;7.860;2022-11-25T07:57:48;7.00;99.90
19734;DHT22;10018;51.230;7.860;2022-11-25T08:00:14;7.00;99.90
19734;DHT22;10018;51.230;7.860;2022-11-25T08:02:39;7.00;99.90
19734;DHT22;10018;51.230;7.860;2022-11-25T08:05:05;7.00;99.90
19734;DHT22;10018;51.230;7.860;2022-11-25T08:07:31;7.00;99.90
19734;DHT22;10018;51.230;7.860;2022-11-25T08:09:56;7.00;99.90
19734;DHT22;10018;51.230;7.860;2022-11-25T08:12:22;7.00;99.90
19734;DHT22;10018;51.230;7.860;2022-11-25T08:14:47;7.00;99.90
19734;DHT22;10018;51.230;7.860;2022-11-25T08:17:13;7.00;99.90
19734;DHT22;10018;51.230;7.860;2022-11-25T08:19:38;7.00;99.90
19734;DHT22;10018;51.230;7.860;2022-11-25T08:22:04;7.00;99.90
19734;DHT22;10018;51.230;7.860;2022-11-25T08:24:30;7.10;99.90
19734;DHT22;10018;51.230;7.860;2022-11-25T08:26:56;7.10;99.90
19734;DHT22;10018;51.230;7.860;2022-11-25T08:29:25;7.10;99.90
19734;DHT22;10018;51.230;7.860;2022-11-25T08:31:51;7.10;99.90
19734;DHT22;10018;51.230;7.860;2022-11-25T08:34:22;7.20;99.90
19734;DHT22;10018;51.230;7.860;2022-11-25T08:36:47;7.20;99.90
19734;DHT22;10018;51.230;7.860;2022-11-25T08:39:13;7.30;99.90
19734;DHT22;10018;51.230;7.860;2022-11-25T08:41:39;7.30;99.90
19734;DHT22;10018;51.230;7.860;2022-11-25T08:44:06;7.30;99.90
19734;DHT22;10018;51.230;7.860;2022-11-25T08:46:34;7.30;99.90
19734;DHT22;10018;51.230;7.860;2022-11-25T08:49:01;7.40;99.90
19734;DHT22;10018;51.230;7.860;2022-11-25T08:51:29;7.40;99.90
19734;DHT22;10018;51.230;7.860;2022-11-25T08:53:56;7.50;99.90
19734;DHT22;10018;51.230;7.860;2022-11-25T08:56:23;7.50;99.90
19734;DHT22;10018;51.230;7.860;2022-11-25T08:58:49;7.50;99.90
19734;DHT22;10018;51.230;7.860;2022-11-25T09:01:15;7.50;99.90
19734;DHT22;10018;51.230;7.860;2022-11-25T09:03:45;7.50;99.90
19734;DHT22;10018;51.230;7.860;2022-11-25T09:06:11;7.60;99.90
19734;DHT22;10018;51.230;7.860;2022-11-25T09:08:39;7.60;99.90
19734;DHT22;10018;51.230;7.860;2022-11-25T09:11:06;7.70;99.90
19734;DHT22;10018;51.230;7.860;2022-11-25T09:13:32;7.70;99.90
19734;DHT22;10018;51.230;7.860;2022-11-25T09:15:58;7.70;99.90
19734;DHT22;10018;51.230;7.860;2022-11-25T09:18:25;7.80;99.90
19734;DHT22;10018;51.230;7.860;2022-11-25T09:20:54;7.80;99.90
19734;DHT22;10018;51.230;7.860;2022-11-25T09:23:20;7.90;99.90
19734;DHT22;10018;51.230;7.860;2022-11-25T09:25:55;8.00;99.90
19734;DHT22;10018;51.230;7.860;2022-11-25T09:28:21;8.00;99.90
19734;DHT22;10018;51.230;7.860;2022-11-25T09:30:47;8.10;99.90
19734;DHT22;10018;51.230;7.860;2022-11-25T09:33:13;8.10;99.90
19734;DHT22;10018;51.230;7.860;2022-11-25T09:35:38;8.20;99.90
19734;DHT22;10018;51.230;7.860;2022-11-25T09:38:04;8.30;99.90
19734;DHT22;10018;51.230;7.860;2022-11-25T09:43:50;8.40;99.90
19734;DHT22;10018;51.230;7.860;2022-11-25T09:46:53;8.40;99.90
19734;DHT22;10018;51.230;7.860;2022-11-25T09:49:44;8.50;99.90
19734;DHT22;10018;51.230;7.860;2022-11-25T09:52:36;8.60;99.90
19734;DHT22;10018;51.230;7.860;2022-11-25T09:55:10;8.70;99.90
19734;DHT22;10018;51.230;7.860;2022-11-25T10:00:44;8.80;99.90
19734;DHT22;10018;51.230;7.860;2022-11-25T10:03:31;8.90;99.90
19734;DHT22;10018;51.230;7.860;2022-11-25T10:06:09;9.00;99.90
19734;DHT22;10018;51.230;7.860;2022-11-25T10:08:40;9.00;99.90
19734;DHT22;10018;51.230;7.860;2022-11-25T10:11:13;9.10;99.90
19734;DHT22;10018;51.230;7.860;2022-11-25T10:16:29;9.10;99.90
19734;DHT22;10018;51.230;7.860;2022-11-25T10:21:43;9.20;99.90
19734;DHT22;10018;51.230;7.860;2022-11-25T10:24:15;9.20;99.90
19734;DHT22;10018;51.230;7.860;2022-11-25T10:26:54;9.20;99.90
19734;DHT22;10018;51.230;7.860;2022-11-25T10:29:27;9.20;99.90
19734;DHT22;10018;51.230;7.860;2022-11-25T10:32:23;9.10;99.90
19734;DHT22;10018;51.230;7.860;2022-11-25T10:34:57;9.20;99.90
19734;DHT22;10018;51.230;7.860;2022-11-25T10:37:36;9.20;99.90
19734;DHT22;10018;51.230;7.860;2022-11-25T10:40:04;9.30;99.90
19734;DHT22;10018;51.230;7.860;2022-11-25T10:42:30;9.50;99.90
19734;DHT22;10018;51.230;7.860;2022-11-25T10:44:57;9.70;99.90
19734;DHT22;10018;51.230;7.860;2022-11-25T10:47:46;9.70;99.90
19734;DHT22;10018;51.230;7.860;2022-11-25T10:50:37;9.80;99.90
19734;DHT22;10018;51.230;7.860;2022-11-25T10:53:12;9.80;99.90
19734;DHT22;10018;51.230;7.860;2022-11-25T10:55:56;9.90;99.90
19734;DHT22;10018;51.230;7.860;2022-11-25T10:58:33;10.00;99.90
19734;DHT22;10018;51.230;7.860;2022-11-25T11:03:28;10.10;99.90
19734;DHT22;10018;51.230;7.860;2022-11-25T11:05:54;10.10;99.90
19734;DHT22;10018;51.230;7.860;2022-11-25T11:08:40;10.20;99.90
19734;DHT22;10018;51.230;7.860;2022-11-25T11:13:36;10.20;99.90
19734;DHT22;10018;51.230;7.860;2022-11-25T11:16:03;10.20;99.90
19734;DHT22;10018;51.230;7.860;2022-11-25T11:18:39;10.20;99.90
19734;DHT22;10018;51.230;7.860;2022-11-25T11:21:09;10.20;99.90
19734;DHT22;10018;51.230;7.860;2022-11-25T11:23:51;10.20;99.90
19734;DHT22;10018;51.230;7.860;2022-11-25T11:26:24;10.10;99.90
19734;DHT22;10018;51.230;7.860;2022-11-25T11:29:04;10.20;99.90
19734;DHT22;10018;51.230;7.860;2022-11-25T11:31:35;10.10;99.90
19734;DHT22;10018;51.230;7.860;2022-11-25T11:34:29;10.10;99.90
19734;DHT22;10018;51.230;7.860;2022-11-25T11:50:47;10.10;99.90
19734;DHT22;10018;51.230;7.860;2022-11-25T11:53:30;10.20;99.90
19734;DHT22;10018;51.230;7.860;2022-11-25T11:58:45;10.20;99.90
19734;DHT22;10018;51.230;7.860;2022-11-25T12:03:57;10.20;99.90
19734;DHT22;10018;51.230;7.860;2022-11-25T12:06:27;10.30;99.90
19734;DHT22;10018;51.230;7.860;2022-11-25T12:09:07;10.30;99.90
19734;DHT22;10018;51.230;7.860;2022-11-25T12:11:38;10.30;99.90
19734;DHT22;10018;51.230;7.860;2022-11-25T12:17:00;10.40;99.90
19734;DHT22;10018;51.230;7.860;2022-11-25T12:20:04;10.40;99.90
19734;DHT22;10018;51.230;7.860;2022-11-25T12:22:36;10.50;99.90
19734;DHT22;10018;51.230;7.860;2022-11-25T12:25:16;10.50;99.90
19734;DHT22;10018;51.230;7.860;2022-11-25T12:27:46;10.60;99.90
19734;DHT22;10018;51.230;7.860;2022-11-25T12:30:17;10.70;99.90
19734;DHT22;10018;51.230;7.860;2022-11-25T12:35:51;10.80;99.90
19734;DHT22;10018;51.230;7.860;2022-11-25T12:46:47;10.80;99.90
19734;DHT22;10018;51.230;7.860;2022-11-25T12:49:17;10.80;99.90
19734;DHT22;10018;51.230;7.860;2022-11-25T12:57:24;10.70;99.90
19734;DHT22;10018;51.230;7.860;2022-11-25T13:11:03;10.80;99.90
19734;DHT22;10018;51.230;7.860;2022-11-25T13:15:57;10.70;99.90
19734;DHT22;10018;51.230;7.860;2022-11-25T13:18:27;10.70;99.90
19734;DHT22;10018;51.230;7.860;2022-11-25T13:20:54;10.70;99.90
19734;DHT22;10018;51.230;7.860;2022-11-25T13:23:45;10.60;99.90
19734;DHT22;10018;51.230;7.860;2022-11-25T13:28:58;10.60;99.90
19734;DHT22;10018;51.230;7.860;2022-11-25T13:31:29;10.60;99.90
19734;DHT22;10018;51.230;7.860;2022-11-25T13:36:48;10.70;99.90
19734;DHT22;10018;51.230;7.860;2022-11-25T13:39:36;10.80;99.90
19734;DHT22;10018;51.230;7.860;2022-11-25T13:44:58;10.90;99.90
19734;DHT22;10018;51.230;7.860;2022-11-25T13:49:56;10.90;99.90
19734;DHT22;10018;51.230;7.860;2022-11-25T13:52:30;10.90;99.90
19734;DHT22;10018;51.230;7.860;2022-11-25T13:54:59;10.70;99.90
19734;DHT22;10018;51.230;7.860;2022-11-25T13:57:28;10.70;99.90
19734;DHT22;10018;51.230;7.860;2022-11-25T14:00:00;10.60;99.90
19734;DHT22;10018;51.230;7.860;2022-11-25T14:05:16;10.50;99.90
19734;DHT22;10018;51.230;7.860;2022-11-25T14:10:41;10.40;99.90
19734;DHT22;10018;51.230;7.860;2022-11-25T14:16:34;10.30;99.90
19734;DHT22;10018;51.230;7.860;2022-11-25T14:19:27;10.30;99.90
19734;DHT22;10018;51.230;7.860;2022-11-25T14:24:53;10.40;99.90
19734;DHT22;10018;51.230;7.860;2022-11-25T14:27:25;10.30;99.90
19734;DHT22;10018;51.230;7.860;2022-11-25T14:29:54;10.30;99.90
19734;DHT22;10018;51.230;7.860;2022-11-25T14:32:29;10.30;99.90
19734;DHT22;10018;51.230;7.860;2022-11-25T14:35:19;10.30;99.90
19734;DHT22;10018;51.230;7.860;2022-11-25T14:37:55;10.20;99.90
19734;DHT22;10018;51.230;7.860;2022-11-25T14:40:27;10.10;99.90
19734;DHT22;10018;51.230;7.860;2022-11-25T14:43:01;10.10;99.90
19734;DHT22;10018;51.230;7.860;2022-11-25T14:45:30;10.00;99.90
19734;DHT22;10018;51.230;7.860;2022-11-25T14:48:19;10.00;99.90
19734;DHT22;10018;51.230;7.860;2022-11-25T14:51:03;9.90;99.90
19734;DHT22;10018;51.230;7.860;2022-11-25T14:53:46;9.80;99.90
19734;DHT22;10018;51.230;7.860;2022-11-25T14:56:14;9.70;99.90
19734;DHT22;10018;51.230;7.860;2022-11-25T14:58:48;9.50;99.90
19734;DHT22;10018;51.230;7.860;2022-11-25T15:01:25;9.40;99.90
19734;DHT22;10018;51.230;7.860;2022-11-25T15:04:06;9.30;99.90
19734;DHT22;10018;51.230;7.860;2022-11-25T15:06:46;9.10;99.90
19734;DHT22;10018;51.230;7.860;2022-11-25T15:09:30;9.10;99.90
19734;DHT22;10018;51.230;7.860;2022-11-25T15:12:01;8.90;99.90
19734;DHT22;10018;51.230;7.860;2022-11-25T15:16:56;8.80;99.90
19734;DHT22;10018;51.230;7.860;2022-11-25T15:19:24;8.70;99.90
19734;DHT22;10018;51.230;7.860;2022-11-25T15:22:10;8.60;99.90
19734;DHT22;10018;51.230;7.860;2022-11-25T15:24:43;8.60;99.90
19734;DHT22;10018;51.230;7.860;2022-11-25T15:27:19;8.60;99.90
19734;DHT22;10018;51.230;7.860;2022-11-25T15:29:47;8.50;99.90
19734;DHT22;10018;51.230;7.860;2022-11-25T15:32:25;8.50;99.90
19734;DHT22;10018;51.230;7.860;2022-11-25T15:34:52;8.40;99.90
19734;DHT22;10018;51.230;7.860;2022-11-25T15:37:18;8.30;99.90
19734;DHT22;10018;51.230;7.860;2022-11-25T15:39:44;8.20;99.90
19734;DHT22;10018;51.230;7.860;2022-11-25T15:42:25;8.30;99.90
19734;DHT22;10018;51.230;7.860;2022-11-25T15:45:00;8.20;99.90
19734;DHT22;10018;51.230;7.860;2022-11-25T15:47:29;8.10;99.90
19734;DHT22;10018;51.230;7.860;2022-11-25T15:50:04;8.10;99.90
19734;DHT22;10018;51.230;7.860;2022-11-25T15:52:35;8.10;99.90
19734;DHT22;10018;51.230;7.860;2022-11-25T15:55:15;8.00;99.90
19734;DHT22;10018;51.230;7.860;2022-11-25T15:57:42;7.90;99.90
19734;DHT22;10018;51.230;7.860;2022-11-25T16:00:17;7.80;99.90
19734;DHT22;10018;51.230;7.860;2022-11-25T16:21:16;7.70;99.90
19734;DHT22;10018;51.230;7.860;2022-11-25T16:26:37;7.70;99.90
19734;DHT22;10018;51.230;7.860;2022-11-25T16:31:56;7.80;99.90
19734;DHT22;10018;51.230;7.860;2022-11-25T16:34:21;7.70;99.90
19734;DHT22;10018;51.230;7.860;2022-11-25T16:36:48;7.70;99.90
19734;DHT22;10018;51.230;7.860;2022-11-25T16:39:14;7.70;99.90
19734;DHT22;10018;51.230;7.860;2022-11-25T16:41:41;7.70;99.90
19734;DHT22;10018;51.230;7.860;2022-11-25T16:44:17;7.80;99.90
19734;DHT22;10018;51.230;7.860;2022-11-25T16:46:43;7.70;99.90
19734;DHT22;10018;51.230;7.860;2022-11-25T16:49:13;7.70;99.90
19734;DHT22;10018;51.230;7.860;2022-11-25T16:51:40;7.70;99.90
19734;DHT22;10018;51.230;7.860;2022-11-25T16:54:06;7.70;99.90
19734;DHT22;10018;51.230;7.860;2022-11-25T16:56:33;7.70;99.90
19734;DHT22;10018;51.230;7.860;2022-11-25T16:59:00;7.70;99.90
19734;DHT22;10018;51.230;7.860;2022-11-25T17:01:28;7.70;99.90
19734;DHT22;10018;51.230;7.860;2022-11-25T17:03:54;7.70;99.90
19734;DHT22;10018;51.230;7.860;2022-11-25T17:06:22;7.70;99.90
19734;DHT22;10018;51.230;7.860;2022-11-25T17:08:48;7.70;99.90
19734;DHT22;10018;51.230;7.860;2022-11-25T17:11:25;7.70;99.90
19734;DHT22;10018;51.230;7.860;2022-11-25T17:13:53;7.70;99.90
19734;DHT22;10018;51.230;7.860;2022-11-25T17:16:24;7.80;99.90
19734;DHT22;10018;51.230;7.860;2022-11-25T17:18:51;7.70;99.90
19734;DHT22;10018;51.230;7.860;2022-11-25T17:21:18;7.80;99.90
19734;DHT22;10018;51.230;7.860;2022-11-25T17:23:44;7.70;99.90
19734;DHT22;10018;51.230;7.860;2022-11-25T17:26:25;7.80;99.90
19734;DHT22;10018;51.230;7.860;2022-11-25T17:28:56;7.80;99.90
19734;DHT22;10018;51.230;7.860;2022-11-25T17:31:26;7.80;99.90
19734;DHT22;10018;51.230;7.860;2022-11-25T17:33:52;7.80;99.90
19734;DHT22;10018;51.230;7.860;2022-11-25T17:36:18;7.90;99.90
19734;DHT22;10018;51.230;7.860;2022-11-25T17:38:44;7.80;99.90
19734;DHT22;10018;51.230;7.860;2022-11-25T17:41:15;7.80;99.90
19734;DHT22;10018;51.230;7.860;2022-11-25T17:43:42;7.80;99.90
19734;DHT22;10018;51.230;7.860;2022-11-25T17:46:12;7.80;99.90
19734;DHT22;10018;51.230;7.860;2022-11-25T17:48:39;7.80;99.90
19734;DHT22;10018;51.230;7.860;2022-11-25T17:51:07;7.80;99.90
19734;DHT22;10018;51.230;7.860;2022-11-25T17:53:33;7.80;99.90
19734;DHT22;10018;51.230;7.860;2022-11-25T17:56:08;7.80;99.90
19734;DHT22;10018;51.230;7.860;2022-11-25T17:58:36;7.90;99.90
19734;DHT22;10018;51.230;7.860;2022-11-25T18:01:01;7.80;99.90